KBIF

Details ICAO KBIF (BIF)
Name BIGGS AAF
Region United States
Timezone America/Denver (UTC-7.0)
Plans Departing 16
Arriving 5
Stats Elevation 3,948 ft / 1,203 m (AMSL)
Location 31.849525° -106.380039°
Runways 1
Magnetic Variation 8.115° E
Sunrise 2017-12-16 14:00:26 UTC / 2017-12-16 07:00:26 Local
Sunset 2017-12-17 00:04:55 UTC / 2017-12-16 17:04:55 Local
Advertisement - Login to hide

Runways

ID Width Length Bearing (true) Bearing (mag) Surface Threshold Offset Overrun Length
03 150 ft / 46 m 13,565 ft / 4,135 m 43.73° 35.61° Asphalt 0 ft / 0 m 1,000 ft / 305 m
21 150 ft / 46 m 13,565 ft / 4,135 m 223.75° 215.63° Asphalt 0 ft / 0 m 1,000 ft / 305 m

Map

Weather


0- 5 10 15 20 25 30 35+ Temperature / ° C

Clouds and Precipitation
Forecast for 2017-12-16 18:00 UTC. Updated 2 hours ago

Ground ~20,000 ft ~40,000 ft Winds

METAR

KBIF 161658Z AUTO 14004KT 8SM CLR 05/M04 A2995 RMK AO2 SLP133 T00511039 $

TAF

TAF KBIF 161404Z 1614/1720 VRB06KT 9999 FEW250 QNH2984INS BECMG 1620/1621 23009KT 9999 SCT250 QNH2983INS BECMG 1705/1706 23012KT 9999 SCT050 BKN150 QNH2992INS BECMG 1717/1718 12012KT 9999 SCT030 OVC150 QNH3003INS TX12/1622Z TNM05/1615Z

Frequencies

Clearance 125.00 MHz EL PASO CLNC DEL
Tower 127.90 MHz TWR
Approach 124.25 MHz EL PASO APP
Ground 121.60 MHz GND
Approach 119.15 MHz EL PASO APP
Departure 121.30 MHz EL PASO DEP
Warning: Do not use this data for real-world aviation or navigation. No guarantee of current accuracy is given.